createdAt,value
2018-10-05T00:01:27.035Z,907.23
2018-10-05T00:03:56.225Z,896.70
2018-10-05T00:06:25.253Z,868.37
2018-10-05T00:08:54.272Z,878.07
2018-10-05T00:11:23.342Z,884.97
2018-10-05T00:13:52.508Z,851.47
2018-10-05T00:16:21.586Z,867.73
2018-10-05T00:18:50.586Z,833.47
2018-10-05T00:21:19.661Z,813.37
2018-10-05T00:23:48.705Z,803.87
2018-10-05T00:26:17.745Z,767.67
2018-10-05T00:28:46.786Z,791.03
2018-10-05T00:31:15.798Z,789.87
2018-10-05T00:33:44.869Z,817.20
2018-10-05T00:36:13.906Z,792.87
2018-10-05T00:38:42.914Z,789.47
2018-10-05T00:41:11.960Z,797.53
2018-10-05T00:43:41.023Z,802.63
2018-10-05T00:46:10.056Z,826.40
2018-10-05T00:48:39.113Z,827.27
2018-10-05T00:51:08.126Z,864.13
2018-10-05T00:53:37.256Z,881.97
2018-10-05T00:56:06.312Z,828.93
2018-10-05T00:58:35.361Z,833.13
2018-10-05T01:01:04.439Z,869.77
2018-10-05T01:03:33.466Z,834.13
2018-10-05T01:06:02.523Z,872.03
2018-10-05T01:08:31.534Z,874.17
2018-10-05T01:11:00.672Z,877.83
2018-10-05T01:13:29.703Z,891.67
2018-10-05T01:15:58.768Z,924.90
2018-10-05T01:18:27.825Z,898.57
2018-10-05T01:20:56.839Z,924.50
2018-10-05T01:23:26.531Z,929.80
2018-10-05T01:25:55.617Z,946.40
2018-10-05T01:28:24.638Z,916.47
2018-10-05T01:30:53.674Z,947.60
2018-10-05T01:33:22.715Z,955.60
2018-10-05T01:35:51.774Z,969.40
2018-10-05T01:38:20.841Z,976.53
2018-10-05T01:40:49.855Z,979.37
2018-10-05T01:43:18.876Z,989.43
2018-10-05T01:45:47.921Z,992.30
2018-10-05T01:48:16.996Z,958.57
2018-10-05T01:50:46.046Z,964.00
2018-10-05T01:53:15.164Z,958.93
2018-10-05T01:55:44.230Z,962.60
2018-10-05T01:58:13.273Z,983.90
2018-10-05T02:00:42.311Z,989.90
2018-10-05T02:03:11.397Z,997.80
2018-10-05T02:05:40.446Z,997.43
2018-10-05T02:08:09.524Z,997.57
2018-10-05T02:10:38.578Z,999.90
2018-10-05T02:13:07.615Z,994.93
2018-10-05T02:15:36.693Z,999.90
2018-10-05T02:18:05.736Z,995.10
2018-10-05T02:20:34.886Z,985.93
2018-10-05T02:23:03.940Z,988.90
2018-10-05T02:25:32.955Z,978.33
2018-10-05T02:28:02.076Z,992.63
2018-10-05T02:30:31.083Z,985.87
2018-10-05T02:33:00.150Z,980.23
2018-10-05T02:35:29.198Z,968.07
2018-10-05T02:37:58.256Z,967.90
2018-10-05T02:40:27.301Z,950.03
2018-10-05T02:42:56.355Z,964.80
2018-10-05T02:45:25.381Z,935.13
2018-10-05T02:47:54.437Z,915.60
2018-10-05T02:50:23.500Z,896.60
2018-10-05T02:52:52.980Z,906.03
2018-10-05T02:55:22.047Z,895.93
2018-10-05T02:57:51.046Z,899.47
2018-10-05T03:00:31.478Z,908.93
2018-10-05T03:03:00.525Z,879.23
2018-10-05T03:05:29.573Z,902.30
2018-10-05T03:07:58.608Z,897.80
2018-10-05T03:10:27.655Z,915.67
2018-10-05T03:12:56.681Z,909.30
2018-10-05T03:15:25.726Z,919.37
2018-10-05T03:17:54.742Z,938.43
2018-10-05T03:20:23.775Z,916.93
2018-10-05T03:22:52.861Z,933.73
2018-10-05T03:25:21.887Z,904.23
2018-10-05T03:27:50.910Z,919.67
2018-10-05T03:30:19.967Z,869.13
2018-10-05T03:32:49.002Z,882.87
2018-10-05T03:35:18.042Z,862.10
2018-10-05T03:37:47.037Z,871.57
2018-10-05T03:40:16.117Z,859.67
2018-10-05T03:42:45.127Z,860.33
2018-10-05T03:45:14.226Z,888.63
2018-10-05T03:47:43.271Z,898.67
2018-10-05T03:50:12.273Z,897.37
2018-10-05T03:52:41.470Z,891.13
2018-10-05T03:55:10.580Z,929.53
2018-10-05T03:57:39.650Z,913.07
2018-10-05T04:00:08.682Z,922.77
2018-10-05T04:02:37.706Z,906.03
2018-10-05T04:05:06.803Z,909.83
2018-10-05T04:07:35.807Z,913.33
2018-10-05T04:10:04.894Z,908.90
2018-10-05T04:12:33.952Z,905.20
2018-10-05T04:15:03.008Z,889.43
2018-10-05T04:17:32.070Z,862.53
2018-10-05T04:20:01.247Z,896.23
2018-10-05T04:22:31.342Z,873.20
2018-10-05T04:25:00.362Z,842.27
2018-10-05T04:27:29.437Z,840.70
2018-10-05T04:29:58.489Z,838.47
2018-10-05T04:32:27.519Z,813.17
2018-10-05T04:34:56.564Z,813.00
2018-10-05T04:37:25.652Z,773.37
2018-10-05T04:39:54.686Z,776.60
2018-10-05T04:42:23.778Z,736.73
2018-10-05T04:44:52.798Z,725.00
2018-10-05T04:47:21.889Z,695.50
2018-10-05T04:49:50.954Z,693.47
2018-10-05T04:52:20.001Z,681.63
2018-10-05T04:54:49.067Z,717.43
2018-10-05T04:57:18.140Z,719.40
2018-10-05T05:02:22.386Z,750.60
2018-10-05T05:04:51.432Z,770.10
2018-10-05T05:07:20.497Z,767.00
2018-10-05T05:09:49.551Z,803.97
2018-10-05T05:12:18.621Z,788.37
2018-10-05T05:14:47.649Z,788.30
2018-10-05T05:17:16.691Z,804.10
2018-10-05T05:19:45.832Z,809.17
2018-10-05T05:22:17.702Z,816.23
2018-10-05T05:24:47.343Z,831.70
2018-10-05T05:27:16.385Z,821.87
2018-10-05T05:29:45.422Z,830.33
2018-10-05T05:32:14.431Z,856.27
2018-10-05T05:34:43.499Z,847.30
2018-10-05T05:37:12.494Z,850.30
2018-10-05T05:39:41.530Z,860.77
2018-10-05T05:42:10.580Z,896.03
2018-10-05T05:44:39.619Z,875.70
2018-10-05T05:47:09.216Z,896.97
2018-10-05T05:49:38.270Z,905.37
2018-10-05T05:52:07.756Z,898.63
2018-10-05T05:54:36.848Z,921.73
2018-10-05T05:57:05.886Z,917.70
2018-10-05T05:59:34.961Z,925.50
2018-10-05T06:02:04.049Z,908.57
2018-10-05T06:04:33.082Z,913.70
2018-10-05T06:07:02.154Z,905.67
2018-10-05T06:09:31.189Z,892.20
2018-10-05T06:12:00.266Z,878.03
2018-10-05T06:14:29.289Z,866.23
2018-10-05T06:16:58.579Z,881.20
2018-10-05T06:19:27.653Z,886.87
2018-10-05T06:21:56.835Z,903.07
2018-10-05T06:24:25.804Z,890.43
2018-10-05T06:26:54.852Z,918.47
2018-10-05T06:29:23.917Z,960.80
2018-10-05T06:31:52.908Z,999.90
2018-10-05T06:34:21.972Z,989.10
2018-10-05T06:36:50.980Z,989.67
2018-10-05T06:39:20.034Z,968.17
2018-10-05T06:41:49.088Z,968.87
2018-10-05T06:44:18.188Z,965.07
2018-10-05T06:46:47.263Z,983.03
2018-10-05T06:49:16.375Z,969.33
2018-10-05T06:51:45.430Z,993.17
2018-10-05T06:54:14.489Z,993.43
2018-10-05T06:56:43.578Z,999.87
2018-10-05T06:59:12.637Z,999.60
2018-10-05T07:01:41.716Z,999.90
2018-10-05T07:04:10.778Z,999.90
2018-10-05T07:06:39.841Z,999.90
2018-10-05T07:09:09.042Z,999.90
2018-10-05T07:11:38.100Z,999.90
2018-10-05T07:14:07.152Z,999.90
2018-10-05T07:16:36.201Z,999.90
2018-10-05T07:19:05.266Z,999.90
2018-10-05T07:21:34.341Z,999.90
2018-10-05T07:24:03.344Z,999.90
2018-10-05T07:26:32.417Z,999.90
2018-10-05T07:29:01.493Z,999.90
2018-10-05T07:31:31.192Z,999.90
2018-10-05T07:34:00.277Z,999.90
2018-10-05T07:36:29.361Z,999.90
2018-10-05T07:38:59.121Z,999.90
2018-10-05T07:41:28.202Z,999.90
2018-10-05T07:43:57.239Z,999.90
2018-10-05T07:46:26.301Z,999.90
2018-10-05T07:48:55.365Z,999.90
2018-10-05T07:51:24.437Z,999.90
2018-10-05T07:53:53.559Z,999.90
2018-10-05T07:56:22.598Z,999.90
2018-10-05T07:58:51.713Z,999.90
2018-10-05T08:01:20.792Z,999.90
2018-10-05T08:03:49.831Z,999.90
2018-10-05T08:06:18.888Z,999.90
2018-10-05T08:08:47.948Z,999.90
2018-10-05T08:11:17.033Z,999.90
2018-10-05T08:13:46.124Z,985.70
2018-10-05T08:16:15.149Z,999.70
2018-10-05T08:18:44.232Z,978.70
2018-10-05T08:21:13.310Z,955.57
2018-10-05T08:23:42.333Z,920.23
2018-10-05T08:26:11.413Z,849.70
2018-10-05T08:28:40.472Z,821.17
2018-10-05T08:31:09.539Z,721.63
2018-10-05T08:33:38.600Z,667.07
2018-10-05T08:36:07.857Z,678.97
2018-10-05T08:38:36.916Z,708.00
2018-10-05T08:41:06.010Z,663.63
2018-10-05T08:43:35.107Z,613.03
2018-10-05T08:46:04.215Z,631.77
2018-10-05T08:48:33.303Z,671.60
2018-10-05T08:51:02.360Z,696.40
2018-10-05T08:53:31.494Z,667.97
2018-10-05T08:56:00.570Z,674.30
2018-10-05T08:58:29.651Z,670.73
2018-10-05T09:00:58.714Z,590.13
2018-10-05T09:03:27.794Z,581.87
2018-10-05T09:05:56.888Z,589.50
2018-10-05T09:08:25.966Z,552.87
2018-10-05T09:10:55.055Z,462.60
2018-10-05T09:13:24.104Z,528.17
2018-10-05T09:15:53.174Z,560.43
2018-10-05T09:18:22.261Z,518.73
2018-10-05T09:20:51.311Z,452.37
2018-10-05T09:23:20.400Z,456.97
2018-10-05T09:25:49.437Z,417.83
2018-10-05T09:28:18.500Z,442.93
2018-10-05T09:30:47.609Z,480.93
2018-10-05T09:33:16.695Z,469.70
2018-10-05T09:35:45.881Z,434.50
2018-10-05T09:38:14.933Z,458.07
2018-10-05T09:40:43.973Z,512.93
2018-10-05T09:43:13.033Z,519.27
2018-10-05T09:45:42.038Z,520.00
2018-10-05T09:48:11.116Z,578.87
2018-10-05T09:50:40.172Z,591.30
2018-10-05T09:53:09.189Z,591.67
2018-10-05T09:55:38.807Z,598.63
2018-10-05T09:58:07.948Z,557.77
2018-10-05T10:00:42.224Z,590.37
2018-10-05T10:03:25.499Z,625.27
2018-10-05T10:05:54.560Z,547.70
2018-10-05T10:08:23.608Z,508.70
2018-10-05T10:10:52.695Z,507.97
2018-10-05T10:13:21.805Z,558.20
2018-10-05T10:15:50.880Z,575.10
2018-10-05T10:18:20.032Z,552.43
2018-10-05T10:20:49.065Z,541.03
2018-10-05T10:23:18.321Z,590.83
2018-10-05T10:25:47.407Z,583.40
2018-10-05T10:28:16.823Z,616.87
2018-10-05T10:30:47.545Z,627.37
2018-10-05T10:33:16.600Z,659.80
2018-10-05T10:35:45.790Z,647.63
2018-10-05T10:38:14.838Z,627.53
2018-10-05T10:40:43.884Z,659.60
2018-10-05T10:43:12.961Z,673.83
2018-10-05T10:45:42.008Z,651.30
2018-10-05T10:48:11.089Z,641.97
2018-10-05T10:50:40.176Z,668.60
2018-10-05T10:53:09.323Z,658.77
2018-10-05T10:55:38.359Z,643.93
2018-10-05T10:58:07.662Z,624.60
2018-10-05T11:00:36.841Z,653.40
2018-10-05T11:03:05.961Z,628.33
2018-10-05T11:05:35.052Z,644.27
2018-10-05T11:08:04.140Z,646.40
2018-10-05T11:10:33.180Z,663.23
2018-10-05T11:13:02.245Z,665.03
2018-10-05T11:15:31.350Z,675.93
2018-10-05T11:18:00.491Z,698.63
2018-10-05T11:20:30.156Z,715.60
2018-10-05T11:22:59.281Z,725.73
2018-10-05T11:25:28.305Z,723.80
2018-10-05T11:27:57.436Z,728.50
2018-10-05T11:30:26.696Z,737.03
2018-10-05T11:32:55.753Z,738.73
2018-10-05T11:35:24.856Z,730.23
2018-10-05T11:37:53.916Z,702.50
2018-10-05T11:40:23.033Z,717.47
2018-10-05T11:42:52.061Z,718.00
2018-10-05T11:45:21.125Z,713.73
2018-10-05T11:47:50.151Z,720.17
2018-10-05T11:50:19.210Z,705.00
2018-10-05T11:52:48.268Z,712.73
2018-10-05T11:55:17.341Z,686.73
2018-10-05T11:57:46.463Z,723.97
2018-10-05T12:00:18.065Z,705.40
2018-10-05T12:02:47.798Z,729.77
2018-10-05T12:05:17.616Z,744.77
2018-10-05T12:07:46.605Z,756.70
2018-10-05T12:10:15.662Z,751.73
2018-10-05T12:12:44.719Z,775.70
2018-10-05T12:15:13.777Z,766.93
2018-10-05T12:17:42.841Z,798.40
2018-10-05T12:20:11.943Z,790.13
2018-10-05T12:22:41.001Z,810.20
2018-10-05T12:25:10.077Z,809.63
2018-10-05T12:27:39.169Z,830.93
2018-10-05T12:30:08.277Z,870.23
2018-10-05T12:32:37.329Z,874.33
2018-10-05T12:35:06.382Z,887.90
2018-10-05T12:37:35.450Z,879.30
2018-10-05T12:40:04.583Z,901.73
2018-10-05T12:42:33.755Z,888.80
2018-10-05T12:45:02.870Z,877.87
2018-10-05T12:47:31.948Z,873.33
2018-10-05T12:50:02.223Z,909.47
2018-10-05T12:52:31.769Z,912.63
2018-10-05T12:55:00.880Z,893.13
2018-10-05T12:57:29.908Z,898.47
2018-10-05T12:59:59.003Z,898.40
2018-10-05T13:02:28.048Z,917.07
2018-10-05T13:04:57.147Z,924.90
2018-10-05T13:07:26.238Z,907.33
2018-10-05T13:09:55.308Z,906.23
2018-10-05T13:12:24.372Z,935.23
2018-10-05T13:14:53.471Z,938.77
2018-10-05T13:17:22.495Z,941.60
2018-10-05T13:19:51.573Z,947.73
2018-10-05T13:22:20.644Z,951.63
2018-10-05T13:24:49.686Z,933.07
2018-10-05T13:27:18.824Z,944.97
2018-10-05T13:29:47.880Z,957.73
2018-10-05T13:32:16.967Z,952.37
2018-10-05T13:34:46.040Z,945.00
2018-10-05T13:37:15.137Z,941.67
2018-10-05T13:39:44.196Z,954.80
2018-10-05T13:42:13.322Z,939.20
2018-10-05T13:44:42.364Z,927.17
2018-10-05T13:47:11.454Z,927.00
2018-10-05T13:49:40.489Z,947.47
2018-10-05T13:52:09.542Z,929.77
2018-10-05T13:54:38.627Z,940.40
2018-10-05T13:57:08.417Z,933.07
2018-10-05T13:59:37.552Z,932.00
2018-10-05T14:02:06.658Z,927.00
2018-10-05T14:04:35.749Z,929.73
2018-10-05T14:07:04.891Z,935.20
2018-10-05T14:09:33.984Z,943.33
2018-10-05T14:12:03.127Z,935.20
2018-10-05T14:14:32.204Z,925.57
2018-10-05T14:17:02.532Z,913.87
2018-10-05T14:19:31.622Z,934.97
2018-10-05T14:22:01.276Z,926.53
2018-10-05T14:24:30.384Z,921.57
2018-10-05T14:26:59.455Z,907.20
2018-10-05T14:29:28.561Z,916.77
2018-10-05T14:31:57.627Z,920.33
2018-10-05T14:34:26.693Z,923.67
2018-10-05T14:36:55.781Z,922.37
2018-10-05T14:39:24.845Z,924.93
2018-10-05T14:41:54.036Z,905.83
2018-10-05T14:44:23.655Z,912.30
2018-10-05T14:46:52.763Z,908.07
2018-10-05T14:49:21.968Z,922.27
2018-10-05T14:51:51.009Z,915.73
2018-10-05T14:54:20.093Z,917.83
2018-10-05T14:56:49.173Z,918.77
2018-10-05T14:59:18.348Z,904.60
2018-10-05T15:01:47.520Z,914.60
2018-10-05T15:04:16.619Z,905.73
2018-10-05T15:06:45.653Z,915.13
2018-10-05T15:09:14.697Z,895.30
2018-10-05T15:11:43.802Z,910.53
2018-10-05T15:14:12.821Z,897.47
2018-10-05T15:16:41.960Z,897.17
2018-10-05T15:19:10.988Z,888.70
2018-10-05T15:21:40.287Z,908.30
2018-10-05T15:24:09.340Z,898.83
2018-10-05T15:26:38.438Z,885.07
2018-10-05T15:29:07.469Z,898.80
2018-10-05T15:31:36.542Z,896.07
2018-10-05T15:34:05.617Z,905.77
2018-10-05T15:36:34.744Z,894.73
2018-10-05T15:39:05.568Z,915.63
2018-10-05T15:41:34.644Z,896.80
2018-10-05T15:44:03.772Z,923.47
2018-10-05T15:47:13.813Z,938.97
2018-10-05T15:49:43.294Z,913.83
2018-10-05T15:52:12.396Z,925.50
2018-10-05T15:54:41.484Z,903.20
2018-10-05T15:57:10.689Z,897.70
2018-10-05T15:59:40.017Z,873.63
2018-10-05T16:02:09.173Z,852.37
2018-10-05T16:04:38.216Z,843.80
2018-10-05T16:07:07.301Z,845.90
2018-10-05T16:09:36.329Z,850.57
2018-10-05T16:12:05.750Z,887.73
2018-10-05T16:14:34.910Z,890.83
2018-10-05T16:17:05.231Z,883.47
2018-10-05T16:19:34.294Z,906.63
2018-10-05T16:22:05.377Z,896.03
2018-10-05T16:24:38.735Z,886.53
2018-10-05T16:27:08.182Z,866.70
2018-10-05T16:29:37.566Z,866.23
2018-10-05T16:32:07.107Z,859.07
2018-10-05T16:34:36.207Z,842.90
2018-10-05T16:37:05.797Z,839.40
2018-10-05T16:39:35.098Z,840.73
2018-10-05T16:42:04.809Z,839.67
2018-10-05T16:44:33.830Z,827.33
2018-10-05T16:47:05.473Z,820.03
2018-10-05T16:49:34.620Z,810.63
2018-10-05T16:52:05.680Z,801.37
2018-10-05T16:54:34.751Z,807.43
2018-10-05T16:57:04.434Z,810.30
2018-10-05T16:59:33.598Z,792.73
2018-10-05T17:02:06.777Z,792.00
2018-10-05T17:04:35.837Z,801.37
2018-10-05T17:07:04.934Z,810.37
2018-10-05T17:09:34.129Z,788.03
2018-10-05T17:12:06.153Z,825.73
2018-10-05T17:14:35.231Z,822.50
2018-10-05T17:17:05.351Z,807.77
2018-10-05T17:19:34.436Z,781.03
2018-10-05T17:22:03.541Z,769.70
2018-10-05T17:24:32.688Z,712.67
2018-10-05T17:27:06.245Z,626.67
2018-10-05T17:29:35.364Z,580.13
2018-10-05T17:32:05.774Z,564.37
2018-10-05T17:34:34.959Z,580.13
2018-10-05T17:37:05.284Z,546.73
2018-10-05T17:39:34.323Z,568.53
2018-10-05T17:42:06.347Z,612.03
2018-10-05T17:44:35.540Z,689.27
2018-10-05T17:47:06.905Z,700.87
2018-10-05T17:49:36.685Z,703.13
2018-10-05T17:52:05.826Z,736.93
2018-10-05T17:54:35.031Z,737.30
2018-10-05T17:57:04.079Z,747.63
2018-10-05T17:59:33.869Z,732.93
2018-10-05T18:02:05.057Z,693.47
2018-10-05T18:04:34.092Z,668.37
2018-10-05T18:07:06.736Z,640.77
2018-10-05T18:09:35.844Z,628.67
2018-10-05T18:12:04.936Z,627.37
2018-10-05T18:14:34.152Z,582.13
2018-10-05T18:17:05.166Z,603.57
2018-10-05T18:19:34.182Z,535.97
2018-10-05T18:22:06.281Z,614.80
2018-10-05T18:24:35.299Z,622.63
2018-10-05T18:27:06.508Z,652.20
2018-10-05T18:29:35.567Z,640.33
2018-10-05T18:32:06.010Z,656.03
2018-10-05T18:34:35.100Z,661.43
2018-10-05T18:37:07.261Z,686.33
2018-10-05T18:39:36.293Z,682.77
2018-10-05T18:42:06.781Z,707.13
2018-10-05T18:44:35.853Z,718.73
2018-10-05T18:47:05.240Z,728.57
2018-10-05T18:49:34.367Z,699.03
2018-10-05T18:52:07.319Z,714.87
2018-10-05T18:54:36.542Z,698.33
2018-10-05T18:57:12.530Z,676.77
2018-10-05T18:59:41.691Z,692.47
2018-10-05T19:02:10.843Z,704.17
2018-10-05T19:04:39.959Z,719.43
2018-10-05T19:07:09.334Z,694.70
2018-10-05T19:09:38.491Z,693.73
2018-10-05T19:12:07.622Z,670.93
2018-10-05T19:14:36.717Z,641.33
2018-10-05T19:17:05.853Z,656.17
2018-10-05T19:19:34.976Z,653.20
2018-10-05T19:22:07.276Z,642.03
2018-10-05T19:24:36.308Z,633.50
2018-10-05T19:27:05.775Z,640.23
2018-10-05T19:29:34.888Z,657.03
2018-10-05T19:32:04.025Z,675.43
2018-10-05T19:34:33.189Z,734.10
2018-10-05T19:37:03.066Z,749.70
2018-10-05T19:39:32.176Z,765.03
2018-10-05T19:42:01.294Z,771.97
2018-10-05T19:44:30.370Z,775.10
2018-10-05T19:46:59.413Z,773.97
2018-10-05T19:49:28.516Z,780.73
2018-10-05T19:51:57.610Z,779.10
2018-10-05T19:54:26.816Z,761.43
2018-10-05T19:56:55.822Z,759.97
2018-10-05T19:59:24.871Z,762.67
2018-10-05T20:01:54.032Z,756.37
2018-10-05T20:04:23.074Z,765.40
2018-10-05T20:06:52.262Z,735.70
2018-10-05T20:09:21.382Z,748.47
2018-10-05T20:11:50.513Z,737.80
2018-10-05T20:14:19.679Z,740.70
2018-10-05T20:16:49.485Z,717.80
2018-10-05T20:19:18.582Z,719.07
2018-10-05T20:21:47.704Z,713.30
2018-10-05T20:24:16.814Z,713.60
2018-10-05T20:26:45.913Z,720.70
2018-10-05T20:29:15.058Z,717.30
2018-10-05T20:31:44.108Z,679.30
2018-10-05T20:34:13.273Z,641.27
2018-10-05T20:36:42.520Z,638.10
2018-10-05T20:39:11.517Z,647.77
2018-10-05T20:41:40.608Z,675.30
2018-10-05T20:44:09.651Z,657.80
2018-10-05T20:46:38.776Z,637.03
2018-10-05T20:49:07.809Z,646.03
2018-10-05T20:51:36.934Z,644.63
2018-10-05T20:54:06.015Z,715.37
2018-10-05T20:56:35.114Z,706.80
2018-10-05T20:59:04.237Z,691.77
2018-10-05T21:01:33.272Z,655.53
2018-10-05T21:04:06.230Z,653.90
2018-10-05T21:06:36.577Z,663.47
2018-10-05T21:09:07.594Z,673.73
2018-10-05T21:11:36.633Z,640.00
2018-10-05T21:14:06.038Z,641.10
2018-10-05T21:16:35.059Z,670.97
2018-10-05T21:19:06.568Z,664.17
2018-10-05T21:21:35.581Z,646.17
2018-10-05T21:24:06.426Z,664.87
2018-10-05T21:26:35.578Z,677.30
2018-10-05T21:29:06.540Z,711.60
2018-10-05T21:31:37.022Z,749.93
2018-10-05T21:34:06.417Z,786.53
2018-10-05T21:36:35.457Z,757.67
2018-10-05T21:39:06.253Z,771.40
2018-10-05T21:41:35.274Z,758.70
2018-10-05T21:44:06.391Z,761.07
2018-10-05T21:46:35.486Z,747.87
2018-10-05T21:49:04.520Z,776.47
2018-10-05T21:51:33.581Z,777.03
2018-10-05T21:54:06.096Z,768.30
2018-10-05T21:56:35.362Z,798.10
2018-10-05T21:59:04.498Z,788.97
2018-10-05T22:01:33.562Z,767.67
2018-10-05T22:04:02.637Z,776.67
2018-10-05T22:06:31.722Z,760.87
2018-10-05T22:09:00.737Z,744.60
2018-10-05T22:11:30.764Z,759.87
2018-10-05T22:13:59.817Z,705.07
2018-10-05T22:16:28.909Z,749.97
2018-10-05T22:18:57.978Z,762.70
2018-10-05T22:21:27.017Z,782.63
2018-10-05T22:23:56.560Z,761.83
2018-10-05T22:26:25.807Z,750.23
2018-10-05T22:28:54.801Z,768.80
2018-10-05T22:31:24.816Z,783.23
2018-10-05T22:33:53.855Z,809.47
2018-10-05T22:36:22.963Z,807.67
2018-10-05T22:38:52.043Z,812.10
2018-10-05T22:41:21.521Z,851.63
2018-10-05T22:43:51.060Z,872.37
2018-10-05T22:46:20.542Z,868.93
2018-10-05T22:48:49.806Z,877.80
2018-10-05T22:51:19.007Z,837.70
2018-10-05T22:53:48.115Z,818.03
2018-10-05T22:56:17.366Z,820.63
2018-10-05T22:58:46.487Z,819.63
2018-10-05T23:01:15.587Z,822.37
2018-10-05T23:03:44.600Z,821.53
2018-10-05T23:06:14.436Z,862.90
2018-10-05T23:08:43.484Z,863.87
2018-10-05T23:11:12.605Z,881.50
2018-10-05T23:13:41.678Z,865.67
2018-10-05T23:16:11.451Z,872.17
2018-10-05T23:18:40.638Z,905.27
2018-10-05T23:21:10.303Z,931.03
2018-10-05T23:23:39.491Z,932.03
2018-10-05T23:26:08.790Z,909.70
2018-10-05T23:28:37.862Z,925.07
2018-10-05T23:31:06.925Z,923.97
2018-10-05T23:33:35.997Z,895.13
2018-10-05T23:36:05.097Z,908.27
2018-10-05T23:38:34.109Z,898.10
2018-10-05T23:41:03.179Z,940.20
2018-10-05T23:43:32.200Z,999.90
2018-10-05T23:46:02.282Z,999.90
2018-10-05T23:48:31.394Z,999.90
2018-10-05T23:51:00.550Z,999.90
2018-10-05T23:53:29.620Z,999.90
2018-10-05T23:55:58.693Z,999.90
2018-10-05T23:58:27.762Z,999.90
